This is the latest recevied weather packets stored in our database for station/object KC9DK. If no packets are shown the sender has not sent any weather packets the latest 10 day(s).
| Time | Temp. | Humidity | Pressure | Rain* | Wind** | Luminosity | Snow |
|---|---|---|---|---|---|---|---|
| 1778401739 | 17.22° C | 72% | 1013.5 hPa | 0 mm | - | 0 W/m² | - |
| 1778401437 | 16.67° C | 72% | 1013.4 hPa | 0 mm | - | 0 W/m² | - |
| 1778401136 | 17.22° C | 72% | 1013.5 hPa | 0 mm | - | 0 W/m² | - |
| 1778400832 | 16.67° C | 70% | 1013.3 hPa | 0 mm | - | 0 W/m² | - |
| 1778400529 | 16.67° C | 72% | 1013.4 hPa | 0 mm | - | 0 W/m² | - |
| 1778400222 | 16.67° C | 71% | 1013.4 hPa | 0 mm | - | 0 W/m² | - |
| 1778399920 | 16.67° C | 71% | 1013.2 hPa | 0 mm | - | 0 W/m² | - |
| 1778399618 | 16.67° C | 70% | 1013.3 hPa | 0 mm | - | 0 W/m² | - |
| 1778399314 | 17.22° C | 68% | 1013.1 hPa | 0 mm | - | 0 W/m² | - |
| 1778399011 | 17.22° C | 68% | 1013.1 hPa | 0 mm | - | 0 W/m² | - |
| 1778398708 | 17.22° C | 68% | 1013.3 hPa | 0 mm | - | 0 W/m² | - |
| 1778398403 | 17.22° C | 68% | 1013.3 hPa | 0 mm | - | 0 W/m² | - |
| 1778398100 | 16.67° C | 71% | 1013 hPa | 0 mm | - | 0 W/m² | - |
| 1778397797 | 16.67° C | 71% | 1013.1 hPa | 0 mm | - | 0 W/m² | - |
| 1778397493 | 15.56° C | 75% | 1012.4 hPa | 0 mm | - | 0 W/m² | - |
| 1778397189 | 15° C | 79% | 1012.2 hPa | 0 mm | - | 0 W/m² | - |
| 1778396889 | 15° C | 78% | 1012.3 hPa | 0 mm | - | 0 W/m² | - |
| 1778396585 | 15° C | 78% | 1012.1 hPa | 0 mm | - | 0 W/m² | - |
| 1778396284 | 15° C | 78% | 1012.1 hPa | 0 mm | - | 0 W/m² | - |
| 1778395981 | 15.56° C | 79% | 1012.4 hPa | 0 mm | - | 0 W/m² | - |
| 1778395678 | 15.56° C | 78% | 1012.1 hPa | 0 mm | - | 0 W/m² | - |
| 1778395376 | 15.56° C | 77% | 1012.2 hPa | 0 mm | - | 0 W/m² | - |
| 1778395071 | 15.56° C | 76% | 1012.1 hPa | 0 mm | - | 0 W/m² | - |
| 1778394768 | 15.56° C | 76% | 1012 hPa | 0 mm | - | 0 W/m² | - |
| 1778394465 | 15.56° C | 76% | 1012.1 hPa | 0 mm | - | 0 W/m² | - |
* Rain latest hour (hover to see other rain measurements)
** Current wind speed in m/s (hover to see current wind gust speed)